createdAt,value
2019-03-31T00:01:18.227Z,55.49
2019-03-31T00:03:42.702Z,54.71
2019-03-31T00:06:07.205Z,54.92
2019-03-31T00:08:31.620Z,56.14
2019-03-31T00:10:56.061Z,55.80
2019-03-31T00:13:20.550Z,55.35
2019-03-31T00:15:45.060Z,56.31
2019-03-31T00:18:09.469Z,57.37
2019-03-31T00:20:34.086Z,58.04
2019-03-31T00:22:58.515Z,58.53
2019-03-31T00:25:22.941Z,59.01
2019-03-31T00:27:47.348Z,57.63
2019-03-31T00:30:11.931Z,59.26
2019-03-31T00:32:36.418Z,57.69
2019-03-31T00:35:01.023Z,57.79
2019-03-31T00:37:25.447Z,57.63
2019-03-31T00:39:49.879Z,58.41
2019-03-31T00:42:14.310Z,58.73
2019-03-31T00:44:38.766Z,59.37
2019-03-31T00:47:03.213Z,59.95
2019-03-31T00:49:27.610Z,58.82
2019-03-31T00:51:52.048Z,57.47
2019-03-31T00:54:16.463Z,56.75
2019-03-31T00:56:40.891Z,56.43
2019-03-31T00:59:05.393Z,55.78
2019-03-31T01:01:36.724Z,55.84
2019-03-31T01:04:01.352Z,56.19
2019-03-31T01:06:26.296Z,58.97
2019-03-31T01:08:50.977Z,57.73
2019-03-31T01:11:19.506Z,56.02
2019-03-31T01:13:45.459Z,56.00
2019-03-31T01:16:12.603Z,55.75
2019-03-31T01:18:36.380Z,55.56
2019-03-31T01:21:00.822Z,55.44
2019-03-31T01:23:25.307Z,55.29
2019-03-31T01:25:49.755Z,55.37
2019-03-31T01:28:14.246Z,55.49
2019-03-31T01:30:38.829Z,55.43
2019-03-31T01:33:03.562Z,55.41
2019-03-31T01:35:28.252Z,55.58
2019-03-31T01:37:52.746Z,56.10
2019-03-31T01:40:17.523Z,56.01
2019-03-31T01:42:41.980Z,56.08
2019-03-31T01:45:07.855Z,56.42
2019-03-31T01:47:32.426Z,56.97
2019-03-31T01:49:56.830Z,56.75
2019-03-31T01:52:21.322Z,57.87
2019-03-31T01:54:45.727Z,56.84
2019-03-31T01:57:10.305Z,56.45
2019-03-31T01:59:34.720Z,56.58
2019-03-31T02:02:04.503Z,57.91
2019-03-31T02:04:25.346Z,58.85
2019-03-31T02:06:49.761Z,57.22
2019-03-31T02:09:14.217Z,57.14
2019-03-31T02:11:38.624Z,57.43
2019-03-31T02:14:03.137Z,58.79
2019-03-31T02:16:27.615Z,58.59
2019-03-31T02:18:52.115Z,58.33
2019-03-31T02:21:16.622Z,58.51
2019-03-31T02:23:41.073Z,60.76
2019-03-31T02:26:05.560Z,60.30
2019-03-31T02:28:30.080Z,59.81
2019-03-31T02:30:54.485Z,58.94
2019-03-31T02:33:18.917Z,60.05
2019-03-31T02:35:43.413Z,58.85
2019-03-31T02:38:07.857Z,62.34
2019-03-31T02:40:32.272Z,60.84
2019-03-31T02:42:56.961Z,59.57
2019-03-31T02:45:21.397Z,59.64
2019-03-31T02:47:45.841Z,59.69
2019-03-31T02:50:11.822Z,60.11
2019-03-31T02:55:13.374Z,59.17
2019-03-31T02:57:38.029Z,59.32
2019-03-31T03:00:03.186Z,59.62
2019-03-31T03:02:41.665Z,59.92
2019-03-31T03:04:57.278Z,60.03
2019-03-31T03:07:22.438Z,59.43
2019-03-31T03:09:49.542Z,59.83
2019-03-31T03:12:15.918Z,61.53
2019-03-31T03:14:40.505Z,62.27
2019-03-31T03:17:05.058Z,60.75
2019-03-31T03:19:29.497Z,61.82
2019-03-31T03:21:53.917Z,60.85
2019-03-31T03:24:18.363Z,61.02
2019-03-31T03:26:42.838Z,63.08
2019-03-31T03:29:07.264Z,62.10
2019-03-31T03:31:31.679Z,63.68
2019-03-31T03:33:56.118Z,64.93
2019-03-31T03:36:20.570Z,63.70
2019-03-31T03:38:45.081Z,64.79
2019-03-31T03:41:09.625Z,67.66
2019-03-31T03:43:34.170Z,66.45
2019-03-31T03:45:58.605Z,67.29
2019-03-31T03:48:23.022Z,66.26
2019-03-31T03:50:47.476Z,68.83
2019-03-31T03:53:12.006Z,68.71
2019-03-31T03:55:36.448Z,69.64
2019-03-31T03:58:00.888Z,69.90
2019-03-31T04:00:25.284Z,68.89
2019-03-31T04:02:49.707Z,67.83
2019-03-31T04:05:14.142Z,68.10
2019-03-31T04:07:38.561Z,68.14
2019-03-31T04:10:03.077Z,67.39
2019-03-31T04:12:27.699Z,66.72
2019-03-31T04:14:52.137Z,67.96
2019-03-31T04:17:16.542Z,68.08
2019-03-31T04:19:40.963Z,68.09
2019-03-31T04:22:05.454Z,66.58
2019-03-31T04:24:31.553Z,65.68
2019-03-31T04:26:55.974Z,66.72
2019-03-31T04:29:20.413Z,66.99
2019-03-31T04:31:44.889Z,65.84
2019-03-31T04:34:09.316Z,65.48
2019-03-31T04:36:33.736Z,67.01
2019-03-31T04:39:00.430Z,66.36
2019-03-31T04:41:24.299Z,65.55
2019-03-31T04:43:48.708Z,65.36
2019-03-31T04:46:13.432Z,64.48
2019-03-31T04:48:37.842Z,64.94
2019-03-31T04:51:02.357Z,65.15
2019-03-31T04:53:26.834Z,64.99
2019-03-31T04:55:51.274Z,64.10
2019-03-31T04:58:15.699Z,63.88
2019-03-31T05:00:40.200Z,63.63
2019-03-31T05:03:04.682Z,63.25
2019-03-31T05:05:29.114Z,63.27
2019-03-31T05:07:53.601Z,63.82
2019-03-31T05:10:18.041Z,64.73
2019-03-31T05:12:42.473Z,64.30
2019-03-31T05:15:07.264Z,63.83
2019-03-31T05:17:31.693Z,63.18
2019-03-31T05:19:56.126Z,62.68
2019-03-31T05:22:20.531Z,62.61
2019-03-31T05:24:44.972Z,63.17
2019-03-31T05:27:09.384Z,63.17
2019-03-31T05:29:33.908Z,62.83
2019-03-31T05:31:58.324Z,63.52
2019-03-31T05:34:22.791Z,64.36
2019-03-31T05:36:47.209Z,65.49
2019-03-31T05:39:11.617Z,67.67
2019-03-31T05:41:36.066Z,69.47
2019-03-31T05:44:05.989Z,69.79
2019-03-31T05:46:26.605Z,68.91
2019-03-31T05:48:50.999Z,70.18
2019-03-31T05:51:15.437Z,70.60
2019-03-31T05:53:39.863Z,70.72
2019-03-31T05:56:04.347Z,71.14
2019-03-31T05:58:28.771Z,71.49
2019-03-31T06:00:53.349Z,71.90
2019-03-31T06:03:17.748Z,72.38
2019-03-31T06:05:42.190Z,73.11
2019-03-31T06:08:06.604Z,72.79
2019-03-31T06:10:31.037Z,73.07
2019-03-31T06:12:55.478Z,73.08
2019-03-31T06:15:19.997Z,73.08
2019-03-31T06:17:44.497Z,72.65
2019-03-31T06:20:09.068Z,72.47
2019-03-31T06:22:33.553Z,71.86
2019-03-31T06:24:58.000Z,70.02
2019-03-31T06:27:22.399Z,70.99
2019-03-31T06:29:46.815Z,68.34
2019-03-31T06:32:11.238Z,67.94
2019-03-31T06:34:46.901Z,67.30
2019-03-31T06:37:01.776Z,67.57
2019-03-31T06:39:26.194Z,67.02
2019-03-31T06:41:50.646Z,67.77
2019-03-31T06:44:15.069Z,67.09
2019-03-31T06:46:39.502Z,66.74
2019-03-31T06:49:03.979Z,67.21
2019-03-31T06:51:28.404Z,67.36
2019-03-31T06:53:52.867Z,68.82
2019-03-31T06:56:17.230Z,67.96
2019-03-31T06:58:41.647Z,68.64
2019-03-31T07:01:06.080Z,70.58
2019-03-31T07:03:30.489Z,69.20
2019-03-31T07:05:54.906Z,67.56
2019-03-31T07:08:19.325Z,66.25
2019-03-31T07:10:43.767Z,69.74
2019-03-31T07:13:08.228Z,68.90
2019-03-31T07:15:32.643Z,68.53
2019-03-31T07:17:57.055Z,67.62
2019-03-31T07:20:21.531Z,66.27
2019-03-31T07:22:46.041Z,68.36
2019-03-31T07:25:12.629Z,66.99
2019-03-31T07:27:38.138Z,66.11
2019-03-31T07:30:02.617Z,65.26
2019-03-31T07:32:27.061Z,65.27
2019-03-31T07:34:51.469Z,66.00
2019-03-31T07:37:15.919Z,65.38
2019-03-31T07:39:40.611Z,64.96
2019-03-31T07:42:05.796Z,64.67
2019-03-31T07:44:30.218Z,66.38
2019-03-31T07:46:54.752Z,65.18
2019-03-31T07:49:19.169Z,63.85
2019-03-31T07:51:43.600Z,62.58
2019-03-31T07:54:08.019Z,63.94
2019-03-31T07:56:32.467Z,64.21
2019-03-31T07:58:56.973Z,62.81
2019-03-31T08:01:21.558Z,62.66
2019-03-31T08:03:45.985Z,63.48
2019-03-31T08:06:10.421Z,63.00
2019-03-31T08:08:34.896Z,62.50
2019-03-31T08:10:59.312Z,62.44
2019-03-31T08:13:23.743Z,62.43
2019-03-31T08:15:48.134Z,61.42
2019-03-31T08:18:12.591Z,60.40
2019-03-31T08:20:36.994Z,60.88
2019-03-31T08:23:01.435Z,60.07
2019-03-31T08:25:25.831Z,60.99
2019-03-31T08:27:50.263Z,60.02
2019-03-31T08:30:15.907Z,60.90
2019-03-31T08:32:40.995Z,60.42
2019-03-31T08:35:09.712Z,61.12
2019-03-31T08:37:34.161Z,62.44
2019-03-31T08:40:00.384Z,61.84
2019-03-31T08:42:24.990Z,60.57
2019-03-31T08:44:49.402Z,60.89
2019-03-31T08:47:13.830Z,60.37
2019-03-31T08:49:38.629Z,59.38
2019-03-31T08:52:03.054Z,58.97
2019-03-31T08:54:27.462Z,58.23
2019-03-31T08:56:51.957Z,58.83
2019-03-31T08:59:16.426Z,58.90
2019-03-31T09:01:40.908Z,57.18
2019-03-31T09:04:05.415Z,55.82
2019-03-31T09:06:29.899Z,54.96
2019-03-31T09:08:54.319Z,54.89
2019-03-31T09:11:18.724Z,53.68
2019-03-31T09:13:43.157Z,54.70
2019-03-31T09:16:07.703Z,52.66
2019-03-31T09:18:32.140Z,51.56
2019-03-31T09:20:56.610Z,51.08
2019-03-31T09:23:21.036Z,48.49
2019-03-31T09:25:47.609Z,49.31
2019-03-31T09:28:11.554Z,49.09
2019-03-31T09:30:36.110Z,49.82
2019-03-31T09:33:00.530Z,49.66
2019-03-31T09:35:24.933Z,49.89
2019-03-31T09:37:49.436Z,50.26
2019-03-31T09:40:14.609Z,49.31
2019-03-31T09:42:39.172Z,49.50
2019-03-31T09:45:03.700Z,48.43
2019-03-31T09:47:28.122Z,50.00
2019-03-31T09:49:52.562Z,47.86
2019-03-31T09:52:16.984Z,47.83
2019-03-31T09:54:41.421Z,48.26
2019-03-31T09:57:05.896Z,46.30
2019-03-31T09:59:30.422Z,47.03
2019-03-31T10:01:54.927Z,47.61
2019-03-31T10:04:19.370Z,46.82
2019-03-31T10:06:44.012Z,45.82
2019-03-31T10:09:08.579Z,46.88
2019-03-31T10:11:33.079Z,46.45
2019-03-31T10:13:57.535Z,46.95
2019-03-31T10:16:21.953Z,45.63
2019-03-31T10:18:46.397Z,45.59
2019-03-31T10:21:10.804Z,46.80
2019-03-31T10:23:35.288Z,44.68
2019-03-31T10:26:01.471Z,45.28
2019-03-31T10:28:28.266Z,45.55
2019-03-31T10:30:52.663Z,45.53
2019-03-31T10:33:17.100Z,44.44
2019-03-31T10:35:41.585Z,45.06
2019-03-31T10:38:06.538Z,44.91
2019-03-31T10:40:31.095Z,44.88
2019-03-31T10:42:55.535Z,43.21
2019-03-31T10:45:20.098Z,43.41
2019-03-31T10:47:44.575Z,46.73
2019-03-31T10:50:09.366Z,44.59
2019-03-31T10:52:33.913Z,42.64
2019-03-31T10:54:58.349Z,42.93
2019-03-31T10:57:22.750Z,42.38
2019-03-31T10:59:47.174Z,43.02
2019-03-31T11:02:11.624Z,43.22
2019-03-31T11:04:36.045Z,43.45
2019-03-31T11:07:03.389Z,42.51
2019-03-31T11:09:26.576Z,42.40
2019-03-31T11:11:51.083Z,42.03
2019-03-31T11:14:15.522Z,42.21
2019-03-31T11:16:39.924Z,40.72
2019-03-31T11:19:04.387Z,41.37
2019-03-31T11:21:30.466Z,42.32
2019-03-31T11:23:54.870Z,42.00
2019-03-31T11:26:19.367Z,42.23
2019-03-31T11:28:43.766Z,40.18
2019-03-31T11:31:08.223Z,41.03
2019-03-31T11:33:32.716Z,39.43
2019-03-31T11:35:57.304Z,40.37
2019-03-31T11:38:21.777Z,39.91
2019-03-31T11:40:46.326Z,40.38
2019-03-31T11:43:10.726Z,40.92
2019-03-31T11:45:35.251Z,40.06
2019-03-31T11:47:59.656Z,39.40
2019-03-31T11:50:24.102Z,41.66
2019-03-31T11:52:48.700Z,40.26
2019-03-31T11:55:13.279Z,39.01
2019-03-31T11:57:37.882Z,37.96
2019-03-31T12:00:02.342Z,37.54
2019-03-31T12:02:27.836Z,37.56
2019-03-31T12:04:52.389Z,37.40
2019-03-31T12:07:27.303Z,36.69
2019-03-31T12:09:42.944Z,36.26
2019-03-31T12:12:07.366Z,36.33
2019-03-31T12:14:31.780Z,35.25
2019-03-31T12:16:56.299Z,35.46
2019-03-31T12:19:20.728Z,35.51
2019-03-31T12:21:45.270Z,35.78
2019-03-31T12:24:09.679Z,35.57
2019-03-31T12:26:34.122Z,35.62
2019-03-31T12:28:58.521Z,36.76
2019-03-31T12:31:22.949Z,36.23
2019-03-31T12:33:47.415Z,34.31
2019-03-31T12:36:11.825Z,35.95
2019-03-31T12:38:36.346Z,35.25
2019-03-31T12:41:00.787Z,35.39
2019-03-31T12:43:25.262Z,34.17
2019-03-31T12:45:49.778Z,34.56
2019-03-31T12:48:14.325Z,35.10
2019-03-31T12:50:38.731Z,35.06
2019-03-31T12:53:03.311Z,34.47
2019-03-31T12:55:27.743Z,33.44
2019-03-31T12:57:52.338Z,33.26
2019-03-31T13:00:16.880Z,33.17
2019-03-31T13:02:41.377Z,32.58
2019-03-31T13:05:07.402Z,26.92
2019-03-31T13:07:31.840Z,24.41
2019-03-31T13:09:56.259Z,23.91
2019-03-31T13:12:20.694Z,24.33
2019-03-31T13:14:45.250Z,23.68
2019-03-31T13:17:09.710Z,21.67
2019-03-31T13:19:34.186Z,20.96
2019-03-31T13:21:58.702Z,21.42
2019-03-31T13:24:23.168Z,20.56
2019-03-31T13:26:47.624Z,19.55
2019-03-31T13:29:12.179Z,21.19
2019-03-31T13:31:36.601Z,19.82
2019-03-31T13:34:01.156Z,19.98
2019-03-31T13:36:25.570Z,22.00
2019-03-31T13:38:50.003Z,18.35
2019-03-31T13:41:14.469Z,21.67
2019-03-31T13:43:38.917Z,20.50
2019-03-31T13:46:03.422Z,21.34
2019-03-31T13:48:27.840Z,22.53
2019-03-31T13:50:52.261Z,19.79
2019-03-31T13:53:16.687Z,19.88
2019-03-31T13:55:41.109Z,19.37
2019-03-31T13:58:08.122Z,18.70
2019-03-31T14:00:37.110Z,18.04
2019-03-31T14:03:01.676Z,17.32
2019-03-31T14:05:26.079Z,17.52
2019-03-31T14:07:50.492Z,16.46
2019-03-31T14:10:15.135Z,17.12
2019-03-31T14:12:39.596Z,16.14
2019-03-31T14:15:18.360Z,16.30
2019-03-31T14:17:32.531Z,16.61
2019-03-31T14:19:56.981Z,16.83
2019-03-31T14:22:21.389Z,16.22
2019-03-31T14:24:45.827Z,15.99
2019-03-31T14:27:10.384Z,16.28
2019-03-31T14:29:34.827Z,16.58
2019-03-31T14:31:59.294Z,16.40
2019-03-31T14:34:23.887Z,16.03
2019-03-31T14:36:48.353Z,16.35
2019-03-31T14:39:12.792Z,16.44
2019-03-31T14:41:37.201Z,15.67
2019-03-31T14:44:01.827Z,17.84
2019-03-31T14:46:26.236Z,16.60
2019-03-31T14:48:50.661Z,15.60
2019-03-31T14:51:15.136Z,15.68
2019-03-31T14:53:39.555Z,15.64
2019-03-31T14:56:04.160Z,17.58
2019-03-31T14:58:28.661Z,15.46
2019-03-31T15:00:53.160Z,16.13
2019-03-31T15:03:18.267Z,15.66
2019-03-31T15:05:42.849Z,16.82
2019-03-31T15:08:07.318Z,15.95
2019-03-31T15:10:31.748Z,17.17
2019-03-31T15:12:56.157Z,16.63
2019-03-31T15:15:20.732Z,16.57
2019-03-31T15:17:45.142Z,16.98
2019-03-31T15:20:10.477Z,17.22
2019-03-31T15:22:34.877Z,16.61
2019-03-31T15:24:59.319Z,16.80
2019-03-31T15:27:23.805Z,17.42
2019-03-31T15:29:48.303Z,16.44
2019-03-31T15:32:13.822Z,15.60
2019-03-31T15:34:38.229Z,15.91
2019-03-31T15:37:02.639Z,15.64
2019-03-31T15:39:27.120Z,17.53
2019-03-31T15:41:51.523Z,17.90
2019-03-31T15:44:15.952Z,17.78
2019-03-31T15:46:40.356Z,18.13
2019-03-31T15:49:04.902Z,19.54
2019-03-31T15:51:29.332Z,18.71
2019-03-31T15:53:53.726Z,19.85
2019-03-31T15:56:18.185Z,20.49
2019-03-31T15:58:42.587Z,23.02
2019-03-31T16:01:07.097Z,24.00
2019-03-31T16:03:33.218Z,25.17
2019-03-31T16:06:00.292Z,24.08
2019-03-31T16:08:24.761Z,24.55
2019-03-31T16:10:49.279Z,25.03
2019-03-31T16:13:13.711Z,24.60
2019-03-31T16:15:38.168Z,25.03
2019-03-31T16:18:02.658Z,26.25
2019-03-31T16:20:27.142Z,26.76
2019-03-31T16:22:51.559Z,26.38
2019-03-31T16:25:35.731Z,26.69
2019-03-31T16:28:00.147Z,27.88
2019-03-31T16:30:24.671Z,28.37
2019-03-31T16:32:49.094Z,28.32
2019-03-31T16:35:13.587Z,28.33
2019-03-31T16:37:38.000Z,28.00
2019-03-31T16:40:02.668Z,28.25
2019-03-31T16:42:27.098Z,30.01
2019-03-31T16:44:58.213Z,29.12
2019-03-31T16:47:17.711Z,30.39
2019-03-31T16:49:42.212Z,29.42
2019-03-31T16:52:06.704Z,29.67
2019-03-31T16:54:31.124Z,29.75
2019-03-31T16:56:55.556Z,29.48
2019-03-31T16:59:19.959Z,30.10
2019-03-31T17:01:44.417Z,30.14
2019-03-31T17:04:08.846Z,30.36
2019-03-31T17:06:33.540Z,31.47
2019-03-31T17:08:57.955Z,31.89
2019-03-31T17:11:22.394Z,31.48
2019-03-31T17:13:46.797Z,31.11
2019-03-31T17:16:11.308Z,31.93
2019-03-31T17:18:35.738Z,31.93
2019-03-31T17:21:00.185Z,32.12
2019-03-31T17:23:24.670Z,31.84
2019-03-31T17:25:49.077Z,31.66
2019-03-31T17:28:13.512Z,32.01
2019-03-31T17:30:37.918Z,32.46
2019-03-31T17:33:02.338Z,32.96
2019-03-31T17:35:26.748Z,33.05
2019-03-31T17:37:51.248Z,33.33
2019-03-31T17:40:15.741Z,33.71
2019-03-31T17:42:40.173Z,33.13
2019-03-31T17:45:07.539Z,33.41
2019-03-31T17:47:31.974Z,33.67
2019-03-31T17:49:56.392Z,33.60
2019-03-31T17:52:20.849Z,33.70
2019-03-31T17:54:45.271Z,34.12
2019-03-31T17:57:09.712Z,34.19
2019-03-31T17:59:34.136Z,34.37
2019-03-31T18:01:58.593Z,34.84
2019-03-31T18:04:23.011Z,34.86
2019-03-31T18:06:47.428Z,35.16
2019-03-31T18:09:11.949Z,35.48
2019-03-31T18:11:36.408Z,35.75
2019-03-31T18:14:00.847Z,35.53
2019-03-31T18:16:25.241Z,35.76
2019-03-31T18:18:49.690Z,35.79
2019-03-31T18:21:14.172Z,35.71
2019-03-31T18:23:38.619Z,36.19
2019-03-31T18:26:03.028Z,36.08
2019-03-31T18:28:27.459Z,35.55
2019-03-31T18:30:51.869Z,35.32
2019-03-31T18:33:16.312Z,35.17
2019-03-31T18:35:40.806Z,34.85
2019-03-31T18:38:07.387Z,34.73
2019-03-31T18:40:35.321Z,34.28
2019-03-31T18:42:58.002Z,34.15
2019-03-31T18:45:22.407Z,34.22
2019-03-31T18:47:46.829Z,34.41
2019-03-31T18:50:11.385Z,35.00
2019-03-31T18:52:35.791Z,34.86
2019-03-31T18:55:01.873Z,34.35
2019-03-31T18:57:30.702Z,34.05
2019-03-31T18:59:59.441Z,34.33
2019-03-31T19:02:28.177Z,34.72
2019-03-31T19:05:10.658Z,34.25
2019-03-31T19:07:42.783Z,34.49
2019-03-31T19:10:25.231Z,34.70
2019-03-31T19:12:51.299Z,34.73
2019-03-31T19:15:20.417Z,34.70
2019-03-31T19:17:55.465Z,34.78
2019-03-31T19:20:24.566Z,34.55
2019-03-31T19:23:02.417Z,34.31
2019-03-31T19:25:28.494Z,34.47
2019-03-31T19:27:54.612Z,34.35
2019-03-31T19:30:23.906Z,34.66
2019-03-31T19:33:05.225Z,34.69
2019-03-31T19:35:34.241Z,34.96
2019-03-31T19:38:06.293Z,35.37
2019-03-31T19:40:41.309Z,35.82
2019-03-31T19:43:09.015Z,35.82
2019-03-31T19:45:41.043Z,35.86
2019-03-31T19:48:10.103Z,35.58
2019-03-31T19:50:53.956Z,35.74
2019-03-31T19:53:22.727Z,35.69
2019-03-31T19:55:48.881Z,35.97
2019-03-31T19:58:17.903Z,35.76
2019-03-31T20:01:00.327Z,35.70
2019-03-31T20:03:26.447Z,35.72
2019-03-31T20:05:55.521Z,35.64
2019-03-31T20:08:36.541Z,35.75
2019-03-31T20:11:14.463Z,35.89
2019-03-31T20:13:40.620Z,36.03
2019-03-31T20:16:12.908Z,36.43
2019-03-31T20:18:44.932Z,36.33
2019-03-31T20:21:32.235Z,36.52
2019-03-31T20:24:13.229Z,36.45
2019-03-31T20:26:48.302Z,36.50
2019-03-31T20:29:17.105Z,36.93
2019-03-31T20:31:43.331Z,36.84
2019-03-31T20:34:12.258Z,36.92
2019-03-31T20:36:44.022Z,36.83
2019-03-31T20:39:13.906Z,37.11
2019-03-31T20:41:42.801Z,37.03
2019-03-31T20:44:07.197Z,37.59
2019-03-31T20:46:31.638Z,37.02
2019-03-31T20:48:56.036Z,37.22
2019-03-31T20:51:20.515Z,37.06
2019-03-31T20:53:44.933Z,36.76
2019-03-31T20:56:09.343Z,37.30
2019-03-31T20:58:33.781Z,37.40
2019-03-31T21:00:58.191Z,37.86
2019-03-31T21:03:22.684Z,38.13
2019-03-31T21:05:47.103Z,37.88
2019-03-31T21:08:11.542Z,38.38
2019-03-31T21:10:36.020Z,38.23
2019-03-31T21:13:00.434Z,38.07
2019-03-31T21:15:24.839Z,38.06
2019-03-31T21:17:49.289Z,38.10
2019-03-31T21:20:13.753Z,38.23
2019-03-31T21:22:38.256Z,38.56
2019-03-31T21:25:03.512Z,39.22
2019-03-31T21:27:28.032Z,39.41
2019-03-31T21:29:52.569Z,39.01
2019-03-31T21:32:16.983Z,38.84
2019-03-31T21:34:41.397Z,39.19
2019-03-31T21:37:05.800Z,39.90
2019-03-31T21:39:30.218Z,39.87
2019-03-31T21:41:54.616Z,40.23
2019-03-31T21:44:19.078Z,40.61
2019-03-31T21:46:43.467Z,40.33
2019-03-31T21:49:07.891Z,39.92
2019-03-31T21:51:32.288Z,39.82
2019-03-31T21:53:56.703Z,39.72
2019-03-31T21:56:21.108Z,40.00
2019-03-31T21:58:45.624Z,40.09
2019-03-31T22:01:10.083Z,41.24
2019-03-31T22:03:34.568Z,42.85
2019-03-31T22:05:58.974Z,43.13
2019-03-31T22:08:23.464Z,43.45
2019-03-31T22:10:47.943Z,42.98
2019-03-31T22:13:12.428Z,42.72
2019-03-31T22:15:36.825Z,42.37
2019-03-31T22:18:01.289Z,43.47
2019-03-31T22:20:25.693Z,43.33
2019-03-31T22:22:50.127Z,42.84
2019-03-31T22:25:14.679Z,43.39
2019-03-31T22:27:39.077Z,43.74
2019-03-31T22:30:05.430Z,43.87
2019-03-31T22:32:29.849Z,43.75
2019-03-31T22:34:54.282Z,43.90
2019-03-31T22:37:18.673Z,43.99
2019-03-31T22:39:43.084Z,43.73
2019-03-31T22:42:07.487Z,43.52
2019-03-31T22:44:31.914Z,43.13
2019-03-31T22:46:56.292Z,44.24
2019-03-31T22:49:20.776Z,43.46
2019-03-31T22:51:45.174Z,42.75
2019-03-31T22:54:09.598Z,42.37
2019-03-31T22:56:33.995Z,42.52
2019-03-31T22:58:58.844Z,42.16
2019-03-31T23:01:23.241Z,42.38
2019-03-31T23:03:47.624Z,43.21
2019-03-31T23:06:12.119Z,42.54
2019-03-31T23:08:36.517Z,43.03
2019-03-31T23:11:00.924Z,43.03
2019-03-31T23:13:25.310Z,43.03
2019-03-31T23:15:49.744Z,43.19
2019-03-31T23:18:14.117Z,43.04
2019-03-31T23:20:38.520Z,43.15
2019-03-31T23:23:02.907Z,43.05
2019-03-31T23:25:27.314Z,43.17
2019-03-31T23:27:51.718Z,43.28
2019-03-31T23:30:16.195Z,43.26
2019-03-31T23:32:40.591Z,43.57
2019-03-31T23:35:06.633Z,44.01
2019-03-31T23:37:31.024Z,43.90
2019-03-31T23:39:55.420Z,44.07
2019-03-31T23:42:19.816Z,43.92
2019-03-31T23:44:44.218Z,43.87
2019-03-31T23:47:08.602Z,44.59
2019-03-31T23:49:33.086Z,44.53
2019-03-31T23:51:57.491Z,44.95
2019-03-31T23:54:21.967Z,45.15
2019-03-31T23:56:46.365Z,44.64
2019-03-31T23:59:10.749Z,44.42
